Weather at Stanke Dimitrov Air Base [CLOSED]

Public forecast

Using degrees Celsius for public forecast. Weather courtesy of forecast.io.

Closest aviation weather report (METAR) to Stanke Dimitrov Air Base

Closest report is Sofia Airport, 24.3 nm (45.1 km) NNE.

2024/07/22 23:30 (retrieved 36 minutes ago)

LBSF 222330Z AUTO VRB01KT 9999 NCD 21/18 Q1014 NOSIG

Closest aviation forecast (TAF) to Stanke Dimitrov Air Base

Forecast is more than 12 hours old.

Closest forecast is Graf Ignatievo Air Base, 65.2 nm (120.7 km) E.

2024/07/21 17:00 (retrieved 1 day ago)

TAF LBPG 211600Z 2117/2205 VRB04KT 9999 FEW050 TEMPO 2117/2119 09010G20KT 6000 TSRA FEW030CB BKN040 BY LBSA